sensor_id;sensor_type;location;lat;lon;timestamp;P1;durP1;ratioP1;P2;durP2;ratioP2
47289;SDS011;33197;52.524;13.444;2022-07-19T00:00:53;10.13;;;6.13;;
47289;SDS011;33197;52.524;13.444;2022-07-19T00:03:20;14.70;;;6.53;;
47289;SDS011;33197;52.524;13.444;2022-07-19T00:05:49;11.60;;;6.75;;
47289;SDS011;33197;52.524;13.444;2022-07-19T00:08:16;10.88;;;6.80;;
47289;SDS011;33197;52.524;13.444;2022-07-19T00:10:43;11.35;;;7.20;;
47289;SDS011;33197;52.524;13.444;2022-07-19T00:13:10;9.60;;;6.32;;
47289;SDS011;33197;52.524;13.444;2022-07-19T00:15:38;10.35;;;6.28;;
47289;SDS011;33197;52.524;13.444;2022-07-19T00:18:06;10.07;;;6.18;;
47289;SDS011;33197;52.524;13.444;2022-07-19T00:20:33;14.00;;;6.53;;
47289;SDS011;33197;52.524;13.444;2022-07-19T00:23:00;14.65;;;7.30;;
47289;SDS011;33197;52.524;13.444;2022-07-19T00:25:27;10.80;;;5.97;;
47289;SDS011;33197;52.524;13.444;2022-07-19T00:27:55;10.13;;;6.43;;
47289;SDS011;33197;52.524;13.444;2022-07-19T00:30:22;8.98;;;6.13;;
47289;SDS011;33197;52.524;13.444;2022-07-19T00:32:49;11.20;;;6.80;;
47289;SDS011;33197;52.524;13.444;2022-07-19T00:35:16;10.20;;;6.60;;
47289;SDS011;33197;52.524;13.444;2022-07-19T00:37:44;10.02;;;5.95;;
47289;SDS011;33197;52.524;13.444;2022-07-19T00:40:21;8.38;;;5.88;;
47289;SDS011;33197;52.524;13.444;2022-07-19T00:42:52;8.82;;;5.57;;
47289;SDS011;33197;52.524;13.444;2022-07-19T00:45:19;10.93;;;6.22;;
47289;SDS011;33197;52.524;13.444;2022-07-19T00:47:46;9.50;;;5.45;;
47289;SDS011;33197;52.524;13.444;2022-07-19T00:50:13;9.38;;;5.80;;
47289;SDS011;33197;52.524;13.444;2022-07-19T00:52:40;13.35;;;5.75;;
47289;SDS011;33197;52.524;13.444;2022-07-19T00:55:10;10.45;;;6.78;;
47289;SDS011;33197;52.524;13.444;2022-07-19T00:57:37;10.27;;;6.00;;
47289;SDS011;33197;52.524;13.444;2022-07-19T01:00:08;12.68;;;5.97;;
47289;SDS011;33197;52.524;13.444;2022-07-19T01:02:36;10.70;;;5.82;;
47289;SDS011;33197;52.524;13.444;2022-07-19T01:05:05;14.60;;;6.68;;
47289;SDS011;33197;52.524;13.444;2022-07-19T01:07:32;8.48;;;5.63;;
47289;SDS011;33197;52.524;13.444;2022-07-19T01:10:02;9.70;;;5.97;;
47289;SDS011;33197;52.524;13.444;2022-07-19T01:12:32;9.00;;;5.68;;
47289;SDS011;33197;52.524;13.444;2022-07-19T01:15:00;7.75;;;5.57;;
47289;SDS011;33197;52.524;13.444;2022-07-19T01:17:27;9.38;;;6.00;;
47289;SDS011;33197;52.524;13.444;2022-07-19T01:19:56;7.70;;;5.60;;
47289;SDS011;33197;52.524;13.444;2022-07-19T01:22:23;11.10;;;6.05;;
47289;SDS011;33197;52.524;13.444;2022-07-19T01:24:50;7.40;;;4.90;;
47289;SDS011;33197;52.524;13.444;2022-07-19T01:27:17;9.20;;;5.75;;
47289;SDS011;33197;52.524;13.444;2022-07-19T01:29:44;11.50;;;5.80;;
47289;SDS011;33197;52.524;13.444;2022-07-19T01:32:11;6.95;;;5.25;;
47289;SDS011;33197;52.524;13.444;2022-07-19T01:34:38;12.40;;;6.07;;
47289;SDS011;33197;52.524;13.444;2022-07-19T01:37:06;13.52;;;6.20;;
47289;SDS011;33197;52.524;13.444;2022-07-19T01:39:33;10.40;;;5.25;;
47289;SDS011;33197;52.524;13.444;2022-07-19T01:42:00;11.80;;;6.38;;
47289;SDS011;33197;52.524;13.444;2022-07-19T01:44:27;9.98;;;5.22;;
47289;SDS011;33197;52.524;13.444;2022-07-19T01:46:54;13.20;;;5.78;;
47289;SDS011;33197;52.524;13.444;2022-07-19T01:49:21;7.95;;;5.53;;
47289;SDS011;33197;52.524;13.444;2022-07-19T01:51:48;7.95;;;5.18;;
47289;SDS011;33197;52.524;13.444;2022-07-19T01:54:15;10.13;;;5.93;;
47289;SDS011;33197;52.524;13.444;2022-07-19T01:56:43;10.35;;;5.97;;
47289;SDS011;33197;52.524;13.444;2022-07-19T01:59:10;12.57;;;5.43;;
47289;SDS011;33197;52.524;13.444;2022-07-19T02:01:37;10.55;;;5.85;;
47289;SDS011;33197;52.524;13.444;2022-07-19T02:04:05;7.72;;;5.68;;
47289;SDS011;33197;52.524;13.444;2022-07-19T02:06:33;11.77;;;5.93;;
47289;SDS011;33197;52.524;13.444;2022-07-19T02:09:00;10.75;;;6.10;;
47289;SDS011;33197;52.524;13.444;2022-07-19T02:11:28;9.60;;;5.32;;
47289;SDS011;33197;52.524;13.444;2022-07-19T02:14:08;8.00;;;5.37;;
47289;SDS011;33197;52.524;13.444;2022-07-19T02:16:36;8.00;;;5.60;;
47289;SDS011;33197;52.524;13.444;2022-07-19T02:19:04;8.80;;;5.20;;
47289;SDS011;33197;52.524;13.444;2022-07-19T02:21:32;10.75;;;6.18;;
47289;SDS011;33197;52.524;13.444;2022-07-19T02:24:00;11.93;;;4.90;;
47289;SDS011;33197;52.524;13.444;2022-07-19T02:26:27;11.25;;;4.78;;
47289;SDS011;33197;52.524;13.444;2022-07-19T02:28:57;8.57;;;5.53;;
47289;SDS011;33197;52.524;13.444;2022-07-19T02:31:25;7.40;;;5.47;;
47289;SDS011;33197;52.524;13.444;2022-07-19T02:33:52;8.57;;;5.93;;
47289;SDS011;33197;52.524;13.444;2022-07-19T02:36:19;11.05;;;6.43;;
47289;SDS011;33197;52.524;13.444;2022-07-19T02:38:46;11.98;;;5.75;;
47289;SDS011;33197;52.524;13.444;2022-07-19T02:41:14;9.40;;;5.72;;
47289;SDS011;33197;52.524;13.444;2022-07-19T02:43:41;10.32;;;5.78;;
47289;SDS011;33197;52.524;13.444;2022-07-19T02:46:08;8.27;;;5.35;;
47289;SDS011;33197;52.524;13.444;2022-07-19T02:48:35;11.80;;;5.50;;
47289;SDS011;33197;52.524;13.444;2022-07-19T02:51:02;10.70;;;5.43;;
47289;SDS011;33197;52.524;13.444;2022-07-19T02:53:31;7.30;;;5.30;;
47289;SDS011;33197;52.524;13.444;2022-07-19T02:55:58;9.25;;;5.97;;
47289;SDS011;33197;52.524;13.444;2022-07-19T02:58:25;12.57;;;5.57;;
47289;SDS011;33197;52.524;13.444;2022-07-19T03:00:52;16.17;;;5.15;;
47289;SDS011;33197;52.524;13.444;2022-07-19T03:03:19;12.10;;;5.57;;
47289;SDS011;33197;52.524;13.444;2022-07-19T03:08:32;9.40;;;5.35;;
47289;SDS011;33197;52.524;13.444;2022-07-19T03:10:59;12.38;;;5.45;;
47289;SDS011;33197;52.524;13.444;2022-07-19T03:13:26;9.02;;;6.10;;
47289;SDS011;33197;52.524;13.444;2022-07-19T03:15:54;8.02;;;5.07;;
47289;SDS011;33197;52.524;13.444;2022-07-19T03:18:21;9.55;;;5.35;;
47289;SDS011;33197;52.524;13.444;2022-07-19T03:20:48;7.93;;;5.15;;
47289;SDS011;33197;52.524;13.444;2022-07-19T03:23:15;8.07;;;5.65;;
47289;SDS011;33197;52.524;13.444;2022-07-19T03:25:42;9.60;;;5.30;;
47289;SDS011;33197;52.524;13.444;2022-07-19T03:28:10;10.57;;;5.25;;
47289;SDS011;33197;52.524;13.444;2022-07-19T03:30:37;15.10;;;5.38;;
47289;SDS011;33197;52.524;13.444;2022-07-19T03:33:04;9.32;;;5.50;;
47289;SDS011;33197;52.524;13.444;2022-07-19T03:35:31;8.93;;;5.20;;
47289;SDS011;33197;52.524;13.444;2022-07-19T03:37:58;8.73;;;5.78;;
47289;SDS011;33197;52.524;13.444;2022-07-19T03:40:25;11.43;;;6.00;;
47289;SDS011;33197;52.524;13.444;2022-07-19T03:42:52;18.05;;;5.95;;
47289;SDS011;33197;52.524;13.444;2022-07-19T03:45:20;9.38;;;5.03;;
47289;SDS011;33197;52.524;13.444;2022-07-19T03:47:47;9.07;;;5.18;;
47289;SDS011;33197;52.524;13.444;2022-07-19T03:50:14;8.75;;;5.57;;
47289;SDS011;33197;52.524;13.444;2022-07-19T03:52:41;8.65;;;6.10;;
47289;SDS011;33197;52.524;13.444;2022-07-19T03:55:08;9.60;;;5.30;;
47289;SDS011;33197;52.524;13.444;2022-07-19T03:57:35;8.88;;;5.60;;
47289;SDS011;33197;52.524;13.444;2022-07-19T04:00:03;8.90;;;5.78;;
47289;SDS011;33197;52.524;13.444;2022-07-19T04:02:31;9.40;;;5.53;;
47289;SDS011;33197;52.524;13.444;2022-07-19T04:04:58;9.38;;;5.90;;
47289;SDS011;33197;52.524;13.444;2022-07-19T04:07:26;11.57;;;6.07;;
47289;SDS011;33197;52.524;13.444;2022-07-19T04:09:53;17.60;;;5.38;;
47289;SDS011;33197;52.524;13.444;2022-07-19T04:12:20;9.18;;;5.38;;
47289;SDS011;33197;52.524;13.444;2022-07-19T04:14:48;9.40;;;5.10;;
47289;SDS011;33197;52.524;13.444;2022-07-19T04:17:15;12.80;;;5.93;;
47289;SDS011;33197;52.524;13.444;2022-07-19T04:19:42;11.15;;;5.75;;
47289;SDS011;33197;52.524;13.444;2022-07-19T04:22:10;7.07;;;4.93;;
47289;SDS011;33197;52.524;13.444;2022-07-19T04:24:37;8.68;;;5.45;;
47289;SDS011;33197;52.524;13.444;2022-07-19T04:27:04;10.70;;;5.68;;
47289;SDS011;33197;52.524;13.444;2022-07-19T04:29:31;9.20;;;5.55;;
47289;SDS011;33197;52.524;13.444;2022-07-19T04:31:58;10.43;;;5.63;;
47289;SDS011;33197;52.524;13.444;2022-07-19T04:34:25;7.93;;;5.60;;
47289;SDS011;33197;52.524;13.444;2022-07-19T04:36:52;8.35;;;5.20;;
47289;SDS011;33197;52.524;13.444;2022-07-19T04:39:19;7.60;;;5.07;;
47289;SDS011;33197;52.524;13.444;2022-07-19T04:41:46;9.20;;;5.40;;
47289;SDS011;33197;52.524;13.444;2022-07-19T04:44:13;9.48;;;5.13;;
47289;SDS011;33197;52.524;13.444;2022-07-19T04:46:41;9.27;;;5.03;;
47289;SDS011;33197;52.524;13.444;2022-07-19T04:49:13;10.20;;;4.93;;
47289;SDS011;33197;52.524;13.444;2022-07-19T04:51:40;9.30;;;5.50;;
47289;SDS011;33197;52.524;13.444;2022-07-19T04:54:08;9.30;;;5.55;;
47289;SDS011;33197;52.524;13.444;2022-07-19T04:56:35;10.07;;;5.60;;
47289;SDS011;33197;52.524;13.444;2022-07-19T04:59:02;9.27;;;5.25;;
47289;SDS011;33197;52.524;13.444;2022-07-19T05:01:29;12.07;;;5.85;;
47289;SDS011;33197;52.524;13.444;2022-07-19T05:03:58;8.05;;;4.82;;
47289;SDS011;33197;52.524;13.444;2022-07-19T05:06:25;10.15;;;5.57;;
47289;SDS011;33197;52.524;13.444;2022-07-19T05:08:52;11.00;;;5.55;;
47289;SDS011;33197;52.524;13.444;2022-07-19T05:11:19;11.32;;;5.30;;
47289;SDS011;33197;52.524;13.444;2022-07-19T05:13:46;12.82;;;5.57;;
47289;SDS011;33197;52.524;13.444;2022-07-19T05:16:14;12.88;;;6.35;;
47289;SDS011;33197;52.524;13.444;2022-07-19T05:18:41;7.80;;;5.45;;
47289;SDS011;33197;52.524;13.444;2022-07-19T05:21:08;12.95;;;5.07;;
47289;SDS011;33197;52.524;13.444;2022-07-19T05:23:35;12.68;;;5.45;;
47289;SDS011;33197;52.524;13.444;2022-07-19T05:26:02;10.88;;;5.57;;
47289;SDS011;33197;52.524;13.444;2022-07-19T05:28:29;10.85;;;5.38;;
47289;SDS011;33197;52.524;13.444;2022-07-19T05:31:02;10.90;;;5.25;;
47289;SDS011;33197;52.524;13.444;2022-07-19T05:33:30;8.52;;;4.40;;
47289;SDS011;33197;52.524;13.444;2022-07-19T05:35:57;10.15;;;5.03;;
47289;SDS011;33197;52.524;13.444;2022-07-19T05:38:24;7.97;;;4.95;;
47289;SDS011;33197;52.524;13.444;2022-07-19T05:40:51;8.52;;;4.85;;
47289;SDS011;33197;52.524;13.444;2022-07-19T05:43:18;10.55;;;4.68;;
47289;SDS011;33197;52.524;13.444;2022-07-19T05:45:46;9.60;;;5.03;;
47289;SDS011;33197;52.524;13.444;2022-07-19T05:48:13;12.63;;;4.70;;
47289;SDS011;33197;52.524;13.444;2022-07-19T05:50:40;19.50;;;5.43;;
47289;SDS011;33197;52.524;13.444;2022-07-19T05:53:07;9.85;;;4.63;;
47289;SDS011;33197;52.524;13.444;2022-07-19T05:55:34;12.57;;;5.13;;
47289;SDS011;33197;52.524;13.444;2022-07-19T05:58:01;15.38;;;4.43;;
47289;SDS011;33197;52.524;13.444;2022-07-19T06:00:28;10.30;;;4.88;;
47289;SDS011;33197;52.524;13.444;2022-07-19T06:02:55;10.98;;;4.82;;
47289;SDS011;33197;52.524;13.444;2022-07-19T06:05:23;11.40;;;3.85;;
47289;SDS011;33197;52.524;13.444;2022-07-19T06:07:50;8.60;;;3.92;;
47289;SDS011;33197;52.524;13.444;2022-07-19T06:10:17;7.72;;;3.83;;
47289;SDS011;33197;52.524;13.444;2022-07-19T06:12:44;12.05;;;4.70;;
47289;SDS011;33197;52.524;13.444;2022-07-19T06:15:11;10.45;;;4.40;;
47289;SDS011;33197;52.524;13.444;2022-07-19T06:17:39;8.48;;;3.67;;
47289;SDS011;33197;52.524;13.444;2022-07-19T06:20:06;9.38;;;3.80;;
47289;SDS011;33197;52.524;13.444;2022-07-19T06:22:34;10.30;;;4.45;;
47289;SDS011;33197;52.524;13.444;2022-07-19T06:25:01;23.27;;;4.72;;
47289;SDS011;33197;52.524;13.444;2022-07-19T06:27:28;14.10;;;4.25;;
47289;SDS011;33197;52.524;13.444;2022-07-19T06:29:55;8.82;;;4.05;;
47289;SDS011;33197;52.524;13.444;2022-07-19T06:32:22;16.55;;;4.35;;
47289;SDS011;33197;52.524;13.444;2022-07-19T06:34:50;9.70;;;4.07;;
47289;SDS011;33197;52.524;13.444;2022-07-19T06:37:17;8.85;;;4.00;;
47289;SDS011;33197;52.524;13.444;2022-07-19T06:39:44;6.90;;;3.45;;
47289;SDS011;33197;52.524;13.444;2022-07-19T06:42:11;9.98;;;3.83;;
47289;SDS011;33197;52.524;13.444;2022-07-19T06:44:38;12.43;;;3.92;;
47289;SDS011;33197;52.524;13.444;2022-07-19T06:47:05;11.95;;;4.55;;
47289;SDS011;33197;52.524;13.444;2022-07-19T06:49:32;12.00;;;4.50;;
47289;SDS011;33197;52.524;13.444;2022-07-19T06:51:59;10.30;;;3.80;;
47289;SDS011;33197;52.524;13.444;2022-07-19T06:54:28;10.95;;;3.65;;
47289;SDS011;33197;52.524;13.444;2022-07-19T06:56:55;10.18;;;3.88;;
47289;SDS011;33197;52.524;13.444;2022-07-19T06:59:23;15.30;;;4.20;;
47289;SDS011;33197;52.524;13.444;2022-07-19T07:01:50;14.15;;;4.72;;
47289;SDS011;33197;52.524;13.444;2022-07-19T07:04:17;10.98;;;3.67;;
47289;SDS011;33197;52.524;13.444;2022-07-19T07:06:54;14.13;;;3.83;;
47289;SDS011;33197;52.524;13.444;2022-07-19T07:09:22;15.85;;;4.00;;
47289;SDS011;33197;52.524;13.444;2022-07-19T07:11:49;18.00;;;3.85;;
47289;SDS011;33197;52.524;13.444;2022-07-19T07:14:16;5.50;;;3.30;;
47289;SDS011;33197;52.524;13.444;2022-07-19T07:16:43;7.57;;;2.92;;
47289;SDS011;33197;52.524;13.444;2022-07-19T07:19:10;8.82;;;3.25;;
47289;SDS011;33197;52.524;13.444;2022-07-19T07:21:37;7.63;;;2.97;;
47289;SDS011;33197;52.524;13.444;2022-07-19T07:24:05;14.35;;;3.88;;
47289;SDS011;33197;52.524;13.444;2022-07-19T07:26:32;10.20;;;4.63;;
47289;SDS011;33197;52.524;13.444;2022-07-19T07:29:00;11.30;;;4.38;;
47289;SDS011;33197;52.524;13.444;2022-07-19T07:31:27;8.35;;;3.65;;
47289;SDS011;33197;52.524;13.444;2022-07-19T07:33:54;9.32;;;3.30;;
47289;SDS011;33197;52.524;13.444;2022-07-19T07:36:21;9.00;;;3.63;;
47289;SDS011;33197;52.524;13.444;2022-07-19T07:38:48;9.70;;;2.95;;
47289;SDS011;33197;52.524;13.444;2022-07-19T07:41:15;10.32;;;2.92;;
47289;SDS011;33197;52.524;13.444;2022-07-19T07:44:03;9.45;;;3.33;;
47289;SDS011;33197;52.524;13.444;2022-07-19T07:46:30;13.27;;;4.75;;
47289;SDS011;33197;52.524;13.444;2022-07-19T07:48:57;16.20;;;5.00;;
47289;SDS011;33197;52.524;13.444;2022-07-19T07:51:31;10.50;;;5.03;;
47289;SDS011;33197;52.524;13.444;2022-07-19T07:54:18;12.23;;;3.53;;
47289;SDS011;33197;52.524;13.444;2022-07-19T07:56:46;12.80;;;3.95;;
47289;SDS011;33197;52.524;13.444;2022-07-19T07:59:13;15.50;;;4.32;;
47289;SDS011;33197;52.524;13.444;2022-07-19T08:01:40;15.55;;;4.72;;
47289;SDS011;33197;52.524;13.444;2022-07-19T08:04:10;10.25;;;4.32;;
47289;SDS011;33197;52.524;13.444;2022-07-19T08:06:37;10.88;;;4.00;;
47289;SDS011;33197;52.524;13.444;2022-07-19T08:09:04;9.10;;;3.92;;
47289;SDS011;33197;52.524;13.444;2022-07-19T08:11:32;6.93;;;3.65;;
47289;SDS011;33197;52.524;13.444;2022-07-19T08:14:00;10.30;;;3.97;;
47289;SDS011;33197;52.524;13.444;2022-07-19T08:16:28;13.77;;;3.40;;
47289;SDS011;33197;52.524;13.444;2022-07-19T08:18:55;6.35;;;2.80;;
47289;SDS011;33197;52.524;13.444;2022-07-19T08:21:22;6.63;;;2.80;;
47289;SDS011;33197;52.524;13.444;2022-07-19T08:23:49;5.13;;;2.70;;
47289;SDS011;33197;52.524;13.444;2022-07-19T08:26:16;8.02;;;2.70;;
47289;SDS011;33197;52.524;13.444;2022-07-19T08:28:43;10.48;;;2.53;;
47289;SDS011;33197;52.524;13.444;2022-07-19T08:31:13;12.73;;;2.97;;
47289;SDS011;33197;52.524;13.444;2022-07-19T08:33:41;6.00;;;2.63;;
47289;SDS011;33197;52.524;13.444;2022-07-19T08:36:09;11.02;;;3.42;;
47289;SDS011;33197;52.524;13.444;2022-07-19T08:38:39;10.15;;;3.45;;
47289;SDS011;33197;52.524;13.444;2022-07-19T08:41:06;10.27;;;3.15;;
47289;SDS011;33197;52.524;13.444;2022-07-19T08:43:34;8.38;;;2.80;;
47289;SDS011;33197;52.524;13.444;2022-07-19T08:46:02;8.43;;;2.97;;
47289;SDS011;33197;52.524;13.444;2022-07-19T08:48:31;18.35;;;4.05;;
47289;SDS011;33197;52.524;13.444;2022-07-19T08:51:12;8.20;;;3.42;;
47289;SDS011;33197;52.524;13.444;2022-07-19T08:53:40;8.73;;;3.35;;
47289;SDS011;33197;52.524;13.444;2022-07-19T08:56:07;9.10;;;2.72;;
47289;SDS011;33197;52.524;13.444;2022-07-19T08:58:55;5.25;;;2.67;;
47289;SDS011;33197;52.524;13.444;2022-07-19T09:01:22;7.25;;;3.15;;
47289;SDS011;33197;52.524;13.444;2022-07-19T09:09:07;17.63;;;3.65;;
47289;SDS011;33197;52.524;13.444;2022-07-19T09:11:36;8.25;;;2.97;;
47289;SDS011;33197;52.524;13.444;2022-07-19T09:14:05;17.98;;;2.75;;
47289;SDS011;33197;52.524;13.444;2022-07-19T09:19:25;13.52;;;3.13;;
47289;SDS011;33197;52.524;13.444;2022-07-19T09:21:53;10.90;;;3.28;;
47289;SDS011;33197;52.524;13.444;2022-07-19T09:24:36;10.93;;;2.58;;
47289;SDS011;33197;52.524;13.444;2022-07-19T09:29:33;6.28;;;2.78;;
47289;SDS011;33197;52.524;13.444;2022-07-19T09:32:12;6.45;;;2.90;;
47289;SDS011;33197;52.524;13.444;2022-07-19T09:34:42;8.57;;;3.22;;
47289;SDS011;33197;52.524;13.444;2022-07-19T09:37:23;8.18;;;2.80;;
47289;SDS011;33197;52.524;13.444;2022-07-19T09:39:59;4.78;;;3.20;;
47289;SDS011;33197;52.524;13.444;2022-07-19T09:42:41;8.93;;;3.22;;
47289;SDS011;33197;52.524;13.444;2022-07-19T09:45:10;7.18;;;2.90;;
47289;SDS011;33197;52.524;13.444;2022-07-19T09:47:42;12.32;;;3.20;;
47289;SDS011;33197;52.524;13.444;2022-07-19T09:50:11;11.40;;;3.50;;
47289;SDS011;33197;52.524;13.444;2022-07-19T09:52:41;6.10;;;3.00;;
47289;SDS011;33197;52.524;13.444;2022-07-19T09:55:14;6.60;;;2.65;;
47289;SDS011;33197;52.524;13.444;2022-07-19T09:57:43;4.63;;;2.80;;
47289;SDS011;33197;52.524;13.444;2022-07-19T10:00:13;5.05;;;2.83;;
47289;SDS011;33197;52.524;13.444;2022-07-19T10:02:42;6.15;;;3.10;;
47289;SDS011;33197;52.524;13.444;2022-07-19T10:05:11;2.92;;;2.28;;
47289;SDS011;33197;52.524;13.444;2022-07-19T10:07:39;7.70;;;2.85;;
47289;SDS011;33197;52.524;13.444;2022-07-19T10:10:08;6.03;;;2.70;;
47289;SDS011;33197;52.524;13.444;2022-07-19T10:12:40;6.65;;;2.80;;
47289;SDS011;33197;52.524;13.444;2022-07-19T10:15:08;7.18;;;2.50;;
47289;SDS011;33197;52.524;13.444;2022-07-19T10:17:38;13.15;;;3.53;;
47289;SDS011;33197;52.524;13.444;2022-07-19T10:20:08;6.57;;;3.38;;
47289;SDS011;33197;52.524;13.444;2022-07-19T10:22:38;13.30;;;3.25;;
47289;SDS011;33197;52.524;13.444;2022-07-19T10:27:41;9.10;;;3.38;;
47289;SDS011;33197;52.524;13.444;2022-07-19T10:32:44;12.25;;;3.83;;
47289;SDS011;33197;52.524;13.444;2022-07-19T10:37:47;8.70;;;3.88;;
47289;SDS011;33197;52.524;13.444;2022-07-19T10:43:08;11.25;;;3.40;;
47289;SDS011;33197;52.524;13.444;2022-07-19T10:45:43;5.15;;;2.55;;
47289;SDS011;33197;52.524;13.444;2022-07-19T10:48:36;5.97;;;2.38;;
47289;SDS011;33197;52.524;13.444;2022-07-19T10:51:04;5.22;;;3.20;;
47289;SDS011;33197;52.524;13.444;2022-07-19T11:01:15;5.68;;;2.53;;
47289;SDS011;33197;52.524;13.444;2022-07-19T11:03:47;4.32;;;2.53;;
47289;SDS011;33197;52.524;13.444;2022-07-19T11:11:59;10.82;;;3.13;;
47289;SDS011;33197;52.524;13.444;2022-07-19T11:14:42;9.90;;;2.80;;
47289;SDS011;33197;52.524;13.444;2022-07-19T11:17:37;4.85;;;2.63;;
47289;SDS011;33197;52.524;13.444;2022-07-19T11:20:07;5.80;;;2.50;;
47289;SDS011;33197;52.524;13.444;2022-07-19T11:22:45;8.88;;;2.35;;
47289;SDS011;33197;52.524;13.444;2022-07-19T11:28:19;11.57;;;4.30;;
47289;SDS011;33197;52.524;13.444;2022-07-19T11:33:25;9.00;;;2.78;;
47289;SDS011;33197;52.524;13.444;2022-07-19T11:36:08;7.45;;;3.03;;
47289;SDS011;33197;52.524;13.444;2022-07-19T11:41:26;8.20;;;2.70;;
47289;SDS011;33197;52.524;13.444;2022-07-19T11:44:05;16.27;;;3.05;;
47289;SDS011;33197;52.524;13.444;2022-07-19T11:46:38;4.78;;;2.50;;
47289;SDS011;33197;52.524;13.444;2022-07-19T11:49:24;2.20;;;1.90;;
47289;SDS011;33197;52.524;13.444;2022-07-19T11:51:58;3.88;;;2.30;;
47289;SDS011;33197;52.524;13.444;2022-07-19T11:54:26;4.20;;;2.08;;
47289;SDS011;33197;52.524;13.444;2022-07-19T11:56:53;6.10;;;2.42;;
47289;SDS011;33197;52.524;13.444;2022-07-19T11:59:20;6.97;;;2.45;;
47289;SDS011;33197;52.524;13.444;2022-07-19T12:01:47;7.30;;;2.38;;
47289;SDS011;33197;52.524;13.444;2022-07-19T12:04:14;4.50;;;2.53;;
47289;SDS011;33197;52.524;13.444;2022-07-19T12:09:12;4.93;;;2.50;;
47289;SDS011;33197;52.524;13.444;2022-07-19T12:11:46;4.45;;;2.42;;
47289;SDS011;33197;52.524;13.444;2022-07-19T12:14:21;4.82;;;2.53;;
47289;SDS011;33197;52.524;13.444;2022-07-19T12:17:08;7.93;;;2.88;;
47289;SDS011;33197;52.524;13.444;2022-07-19T12:19:38;4.57;;;2.60;;
47289;SDS011;33197;52.524;13.444;2022-07-19T12:22:31;4.78;;;2.75;;
47289;SDS011;33197;52.524;13.444;2022-07-19T12:25:00;7.30;;;2.95;;
47289;SDS011;33197;52.524;13.444;2022-07-19T12:27:29;4.72;;;3.33;;
47289;SDS011;33197;52.524;13.444;2022-07-19T12:29:57;4.43;;;3.00;;
47289;SDS011;33197;52.524;13.444;2022-07-19T12:32:35;8.57;;;3.55;;
47289;SDS011;33197;52.524;13.444;2022-07-19T12:37:35;6.10;;;3.30;;
47289;SDS011;33197;52.524;13.444;2022-07-19T12:40:14;4.28;;;2.97;;
47289;SDS011;33197;52.524;13.444;2022-07-19T12:45:17;6.78;;;3.00;;
47289;SDS011;33197;52.524;13.444;2022-07-19T12:51:53;5.72;;;3.00;;
47289;SDS011;33197;52.524;13.444;2022-07-19T12:54:20;9.02;;;3.80;;
47289;SDS011;33197;52.524;13.444;2022-07-19T12:56:47;7.05;;;3.15;;
47289;SDS011;33197;52.524;13.444;2022-07-19T12:59:14;6.93;;;3.50;;
47289;SDS011;33197;52.524;13.444;2022-07-19T13:02:00;9.60;;;3.55;;
47289;SDS011;33197;52.524;13.444;2022-07-19T13:04:28;5.45;;;3.28;;
47289;SDS011;33197;52.524;13.444;2022-07-19T13:06:55;3.72;;;3.03;;
47289;SDS011;33197;52.524;13.444;2022-07-19T13:09:22;8.38;;;3.20;;
47289;SDS011;33197;52.524;13.444;2022-07-19T13:11:49;9.65;;;3.55;;
47289;SDS011;33197;52.524;13.444;2022-07-19T13:14:24;7.55;;;3.50;;
47289;SDS011;33197;52.524;13.444;2022-07-19T13:16:51;5.55;;;3.28;;
47289;SDS011;33197;52.524;13.444;2022-07-19T13:19:18;9.40;;;3.15;;
47289;SDS011;33197;52.524;13.444;2022-07-19T13:21:45;6.78;;;3.38;;
47289;SDS011;33197;52.524;13.444;2022-07-19T13:24:12;11.13;;;3.33;;
47289;SDS011;33197;52.524;13.444;2022-07-19T13:26:59;7.97;;;3.17;;
47289;SDS011;33197;52.524;13.444;2022-07-19T13:29:27;9.23;;;3.40;;
47289;SDS011;33197;52.524;13.444;2022-07-19T13:32:00;7.38;;;3.65;;
47289;SDS011;33197;52.524;13.444;2022-07-19T13:34:28;7.03;;;3.53;;
47289;SDS011;33197;52.524;13.444;2022-07-19T13:36:55;7.05;;;3.22;;
47289;SDS011;33197;52.524;13.444;2022-07-19T13:39:23;5.32;;;3.30;;
47289;SDS011;33197;52.524;13.444;2022-07-19T13:41:50;9.40;;;3.47;;
47289;SDS011;33197;52.524;13.444;2022-07-19T13:44:18;4.45;;;3.20;;
47289;SDS011;33197;52.524;13.444;2022-07-19T13:46:45;5.93;;;2.65;;
47289;SDS011;33197;52.524;13.444;2022-07-19T13:49:12;6.25;;;3.03;;
47289;SDS011;33197;52.524;13.444;2022-07-19T13:51:39;5.00;;;3.10;;
47289;SDS011;33197;52.524;13.444;2022-07-19T13:54:06;8.20;;;3.17;;
47289;SDS011;33197;52.524;13.444;2022-07-19T13:56:33;6.95;;;3.53;;
47289;SDS011;33197;52.524;13.444;2022-07-19T13:59:01;4.65;;;3.35;;
47289;SDS011;33197;52.524;13.444;2022-07-19T14:01:30;5.63;;;2.92;;
47289;SDS011;33197;52.524;13.444;2022-07-19T14:04:14;4.28;;;3.45;;
47289;SDS011;33197;52.524;13.444;2022-07-19T14:06:48;6.35;;;3.92;;
47289;SDS011;33197;52.524;13.444;2022-07-19T14:09:16;18.70;;;3.65;;
47289;SDS011;33197;52.524;13.444;2022-07-19T14:11:43;5.13;;;3.65;;
47289;SDS011;33197;52.524;13.444;2022-07-19T14:14:12;6.95;;;3.30;;
47289;SDS011;33197;52.524;13.444;2022-07-19T14:16:39;5.22;;;3.53;;
47289;SDS011;33197;52.524;13.444;2022-07-19T14:19:07;3.58;;;3.10;;
47289;SDS011;33197;52.524;13.444;2022-07-19T14:21:34;10.95;;;3.65;;
47289;SDS011;33197;52.524;13.444;2022-07-19T14:24:02;4.63;;;3.55;;
47289;SDS011;33197;52.524;13.444;2022-07-19T14:26:30;5.57;;;3.13;;
47289;SDS011;33197;52.524;13.444;2022-07-19T14:28:57;6.68;;;3.65;;
47289;SDS011;33197;52.524;13.444;2022-07-19T14:31:24;7.20;;;4.03;;
47289;SDS011;33197;52.524;13.444;2022-07-19T14:33:51;7.57;;;3.80;;
47289;SDS011;33197;52.524;13.444;2022-07-19T14:36:39;5.18;;;3.33;;
47289;SDS011;33197;52.524;13.444;2022-07-19T14:39:06;7.90;;;4.72;;
47289;SDS011;33197;52.524;13.444;2022-07-19T14:41:35;9.07;;;3.95;;
47289;SDS011;33197;52.524;13.444;2022-07-19T14:44:02;4.82;;;4.43;;
47289;SDS011;33197;52.524;13.444;2022-07-19T14:46:30;6.82;;;6.22;;
47289;SDS011;33197;52.524;13.444;2022-07-19T14:48:57;7.75;;;7.13;;
47289;SDS011;33197;52.524;13.444;2022-07-19T14:51:24;11.13;;;9.73;;
47289;SDS011;33197;52.524;13.444;2022-07-19T14:53:51;12.20;;;11.10;;
47289;SDS011;33197;52.524;13.444;2022-07-19T14:56:18;16.50;;;15.43;;
47289;SDS011;33197;52.524;13.444;2022-07-19T14:58:45;22.60;;;20.98;;
47289;SDS011;33197;52.524;13.444;2022-07-19T15:01:14;27.92;;;26.25;;
47289;SDS011;33197;52.524;13.444;2022-07-19T15:03:41;38.22;;;36.00;;
47289;SDS011;33197;52.524;13.444;2022-07-19T15:06:08;51.72;;;48.55;;
47289;SDS011;33197;52.524;13.444;2022-07-19T15:08:35;62.47;;;59.28;;
47289;SDS011;33197;52.524;13.444;2022-07-19T15:11:02;79.38;;;75.32;;
47289;SDS011;33197;52.524;13.444;2022-07-19T15:13:29;90.90;;;86.47;;
47289;SDS011;33197;52.524;13.444;2022-07-19T15:15:57;99.38;;;94.38;;
47289;SDS011;33197;52.524;13.444;2022-07-19T15:18:24;106.53;;;101.35;;
47289;SDS011;33197;52.524;13.444;2022-07-19T15:20:52;109.30;;;103.70;;
47289;SDS011;33197;52.524;13.444;2022-07-19T15:23:19;122.57;;;116.68;;
47289;SDS011;33197;52.524;13.444;2022-07-19T15:25:46;138.57;;;131.98;;
47289;SDS011;33197;52.524;13.444;2022-07-19T15:28:13;143.18;;;135.98;;
47289;SDS011;33197;52.524;13.444;2022-07-19T15:30:43;143.20;;;136.30;;
47289;SDS011;33197;52.524;13.444;2022-07-19T15:33:10;148.23;;;141.23;;
47289;SDS011;33197;52.524;13.444;2022-07-19T15:35:37;161.98;;;154.35;;